sensor_id;sensor_type;location;lat;lon;timestamp;temperature;humidity
21602;DHT22;10963;50.934;4.668;2024-01-07T00:01:18;5.50;99.90
21602;DHT22;10963;50.934;4.668;2024-01-07T00:03:43;5.60;99.90
21602;DHT22;10963;50.934;4.668;2024-01-07T00:06:12;5.70;99.90
21602;DHT22;10963;50.934;4.668;2024-01-07T00:08:38;5.70;99.90
21602;DHT22;10963;50.934;4.668;2024-01-07T00:11:06;5.70;99.90
21602;DHT22;10963;50.934;4.668;2024-01-07T00:13:34;5.70;99.90
21602;DHT22;10963;50.934;4.668;2024-01-07T00:15:59;5.70;99.90
21602;DHT22;10963;50.934;4.668;2024-01-07T00:18:28;5.90;99.90
21602;DHT22;10963;50.934;4.668;2024-01-07T00:20:53;5.70;99.90
21602;DHT22;10963;50.934;4.668;2024-01-07T00:23:19;5.50;99.90
21602;DHT22;10963;50.934;4.668;2024-01-07T00:25:49;5.60;99.90
21602;DHT22;10963;50.934;4.668;2024-01-07T00:28:15;5.60;99.90
21602;DHT22;10963;50.934;4.668;2024-01-07T00:30:40;5.80;99.90
21602;DHT22;10963;50.934;4.668;2024-01-07T00:33:06;5.60;99.90
21602;DHT22;10963;50.934;4.668;2024-01-07T00:35:32;5.40;99.90
21602;DHT22;10963;50.934;4.668;2024-01-07T00:37:57;5.40;99.90
21602;DHT22;10963;50.934;4.668;2024-01-07T00:40:24;5.30;99.90
21602;DHT22;10963;50.934;4.668;2024-01-07T00:42:49;5.30;99.90
21602;DHT22;10963;50.934;4.668;2024-01-07T00:45:19;5.40;99.90
21602;DHT22;10963;50.934;4.668;2024-01-07T00:47:44;5.30;99.90
21602;DHT22;10963;50.934;4.668;2024-01-07T00:50:12;5.20;99.90
21602;DHT22;10963;50.934;4.668;2024-01-07T00:52:38;5.00;99.90
21602;DHT22;10963;50.934;4.668;2024-01-07T00:55:05;4.70;99.90
21602;DHT22;10963;50.934;4.668;2024-01-07T00:57:34;4.70;99.90
21602;DHT22;10963;50.934;4.668;2024-01-07T01:00:06;4.70;99.90
21602;DHT22;10963;50.934;4.668;2024-01-07T01:02:32;4.60;99.90
21602;DHT22;10963;50.934;4.668;2024-01-07T01:05:01;4.50;99.90
21602;DHT22;10963;50.934;4.668;2024-01-07T01:07:30;4.50;99.90
21602;DHT22;10963;50.934;4.668;2024-01-07T01:09:55;4.60;99.90
21602;DHT22;10963;50.934;4.668;2024-01-07T01:12:21;4.80;99.90
21602;DHT22;10963;50.934;4.668;2024-01-07T01:14:51;4.90;99.90
21602;DHT22;10963;50.934;4.668;2024-01-07T01:17:17;4.80;99.90
21602;DHT22;10963;50.934;4.668;2024-01-07T01:19:47;4.60;99.90
21602;DHT22;10963;50.934;4.668;2024-01-07T01:22:13;4.50;99.90
21602;DHT22;10963;50.934;4.668;2024-01-07T01:24:38;4.40;99.90
21602;DHT22;10963;50.934;4.668;2024-01-07T01:27:04;4.30;99.90
21602;DHT22;10963;50.934;4.668;2024-01-07T01:29:32;4.30;99.90
21602;DHT22;10963;50.934;4.668;2024-01-07T01:31:58;4.30;99.90
21602;DHT22;10963;50.934;4.668;2024-01-07T01:34:26;4.30;99.90
21602;DHT22;10963;50.934;4.668;2024-01-07T01:36:54;4.50;99.90
21602;DHT22;10963;50.934;4.668;2024-01-07T01:39:22;4.50;99.90
21602;DHT22;10963;50.934;4.668;2024-01-07T01:41:48;4.40;99.90
21602;DHT22;10963;50.934;4.668;2024-01-07T01:44:14;4.50;99.90
21602;DHT22;10963;50.934;4.668;2024-01-07T01:46:39;4.50;99.90
21602;DHT22;10963;50.934;4.668;2024-01-07T01:49:09;4.50;99.90
21602;DHT22;10963;50.934;4.668;2024-01-07T01:51:35;4.70;99.90
21602;DHT22;10963;50.934;4.668;2024-01-07T01:54:02;4.80;99.90
21602;DHT22;10963;50.934;4.668;2024-01-07T01:56:28;4.70;99.90
21602;DHT22;10963;50.934;4.668;2024-01-07T01:58:55;4.50;99.90
21602;DHT22;10963;50.934;4.668;2024-01-07T02:01:23;4.60;99.90
21602;DHT22;10963;50.934;4.668;2024-01-07T02:03:49;4.70;99.90
21602;DHT22;10963;50.934;4.668;2024-01-07T02:06:17;4.70;99.90
21602;DHT22;10963;50.934;4.668;2024-01-07T02:08:46;4.70;99.90
21602;DHT22;10963;50.934;4.668;2024-01-07T02:11:16;4.70;99.90
21602;DHT22;10963;50.934;4.668;2024-01-07T02:13:42;4.60;99.90
21602;DHT22;10963;50.934;4.668;2024-01-07T02:16:11;4.80;99.90
21602;DHT22;10963;50.934;4.668;2024-01-07T02:18:38;4.70;99.90
21602;DHT22;10963;50.934;4.668;2024-01-07T02:21:07;4.70;99.90
21602;DHT22;10963;50.934;4.668;2024-01-07T02:23:33;4.60;99.90
21602;DHT22;10963;50.934;4.668;2024-01-07T02:26:01;4.50;99.90
21602;DHT22;10963;50.934;4.668;2024-01-07T02:28:26;4.40;99.90
21602;DHT22;10963;50.934;4.668;2024-01-07T02:30:52;4.20;99.90
21602;DHT22;10963;50.934;4.668;2024-01-07T02:33:18;4.20;99.90
21602;DHT22;10963;50.934;4.668;2024-01-07T02:35:43;4.30;99.90
21602;DHT22;10963;50.934;4.668;2024-01-07T02:38:12;4.50;99.90
21602;DHT22;10963;50.934;4.668;2024-01-07T02:40:40;4.70;99.90
21602;DHT22;10963;50.934;4.668;2024-01-07T02:43:08;4.40;99.90
21602;DHT22;10963;50.934;4.668;2024-01-07T02:45:36;4.40;99.90
21602;DHT22;10963;50.934;4.668;2024-01-07T02:48:04;4.40;99.90
21602;DHT22;10963;50.934;4.668;2024-01-07T02:50:30;4.30;99.90
21602;DHT22;10963;50.934;4.668;2024-01-07T02:52:55;4.30;99.90
21602;DHT22;10963;50.934;4.668;2024-01-07T02:55:23;4.40;99.90
21602;DHT22;10963;50.934;4.668;2024-01-07T02:57:49;4.30;99.90
21602;DHT22;10963;50.934;4.668;2024-01-07T03:00:15;4.40;99.90
21602;DHT22;10963;50.934;4.668;2024-01-07T03:02:41;4.50;99.90
21602;DHT22;10963;50.934;4.668;2024-01-07T03:05:07;4.40;99.90
21602;DHT22;10963;50.934;4.668;2024-01-07T03:07:33;4.30;99.90
21602;DHT22;10963;50.934;4.668;2024-01-07T03:10:04;4.30;99.90
21602;DHT22;10963;50.934;4.668;2024-01-07T03:12:30;4.10;99.90
21602;DHT22;10963;50.934;4.668;2024-01-07T03:14:56;4.00;99.90
21602;DHT22;10963;50.934;4.668;2024-01-07T03:17:21;4.10;99.90
21602;DHT22;10963;50.934;4.668;2024-01-07T03:19:50;4.20;99.90
21602;DHT22;10963;50.934;4.668;2024-01-07T03:22:20;4.20;99.90
21602;DHT22;10963;50.934;4.668;2024-01-07T03:24:48;4.20;99.90
21602;DHT22;10963;50.934;4.668;2024-01-07T03:27:14;4.30;99.90
21602;DHT22;10963;50.934;4.668;2024-01-07T03:29:40;4.40;99.90
21602;DHT22;10963;50.934;4.668;2024-01-07T03:32:09;4.10;99.90
21602;DHT22;10963;50.934;4.668;2024-01-07T03:34:35;4.00;99.90
21602;DHT22;10963;50.934;4.668;2024-01-07T03:37:00;4.20;99.90
21602;DHT22;10963;50.934;4.668;2024-01-07T03:39:26;4.10;99.90
21602;DHT22;10963;50.934;4.668;2024-01-07T03:41:55;4.10;99.90
21602;DHT22;10963;50.934;4.668;2024-01-07T03:44:21;4.10;99.90
21602;DHT22;10963;50.934;4.668;2024-01-07T03:46:47;4.20;99.90
21602;DHT22;10963;50.934;4.668;2024-01-07T03:49:12;4.00;99.90
21602;DHT22;10963;50.934;4.668;2024-01-07T03:51:40;3.80;99.90
21602;DHT22;10963;50.934;4.668;2024-01-07T03:54:06;3.90;99.90
21602;DHT22;10963;50.934;4.668;2024-01-07T03:56:31;4.00;99.90
21602;DHT22;10963;50.934;4.668;2024-01-07T03:59:00;4.00;99.90
21602;DHT22;10963;50.934;4.668;2024-01-07T04:01:30;3.90;99.90
21602;DHT22;10963;50.934;4.668;2024-01-07T04:03:56;3.80;99.90
21602;DHT22;10963;50.934;4.668;2024-01-07T04:06:26;3.80;99.90
21602;DHT22;10963;50.934;4.668;2024-01-07T04:08:52;3.90;99.90
21602;DHT22;10963;50.934;4.668;2024-01-07T04:11:18;3.80;99.90
21602;DHT22;10963;50.934;4.668;2024-01-07T04:13:43;3.90;99.90
21602;DHT22;10963;50.934;4.668;2024-01-07T04:16:21;3.80;99.90
21602;DHT22;10963;50.934;4.668;2024-01-07T04:18:47;4.00;99.90
21602;DHT22;10963;50.934;4.668;2024-01-07T04:21:15;4.00;99.90
21602;DHT22;10963;50.934;4.668;2024-01-07T04:23:43;4.00;99.90
21602;DHT22;10963;50.934;4.668;2024-01-07T04:26:09;4.10;99.90
21602;DHT22;10963;50.934;4.668;2024-01-07T04:28:35;4.10;99.90
21602;DHT22;10963;50.934;4.668;2024-01-07T04:31:01;4.30;99.90
21602;DHT22;10963;50.934;4.668;2024-01-07T04:33:29;4.30;99.90
21602;DHT22;10963;50.934;4.668;2024-01-07T04:35:57;4.40;99.90
21602;DHT22;10963;50.934;4.668;2024-01-07T04:38:24;4.50;99.90
21602;DHT22;10963;50.934;4.668;2024-01-07T04:40:53;4.30;99.90
21602;DHT22;10963;50.934;4.668;2024-01-07T04:43:21;4.00;99.90
21602;DHT22;10963;50.934;4.668;2024-01-07T04:45:49;4.20;99.90
21602;DHT22;10963;50.934;4.668;2024-01-07T04:48:17;4.20;99.90
21602;DHT22;10963;50.934;4.668;2024-01-07T04:50:45;4.00;99.90
21602;DHT22;10963;50.934;4.668;2024-01-07T04:53:11;4.10;99.90
21602;DHT22;10963;50.934;4.668;2024-01-07T04:55:39;4.00;99.90
21602;DHT22;10963;50.934;4.668;2024-01-07T04:58:05;4.00;99.90
21602;DHT22;10963;50.934;4.668;2024-01-07T05:00:31;4.10;99.90
21602;DHT22;10963;50.934;4.668;2024-01-07T05:02:57;4.10;99.90
21602;DHT22;10963;50.934;4.668;2024-01-07T05:05:24;4.10;99.90
21602;DHT22;10963;50.934;4.668;2024-01-07T05:07:52;4.10;99.90
21602;DHT22;10963;50.934;4.668;2024-01-07T05:10:21;4.20;99.90
21602;DHT22;10963;50.934;4.668;2024-01-07T05:12:49;4.20;99.90
21602;DHT22;10963;50.934;4.668;2024-01-07T05:15:15;4.10;99.90
21602;DHT22;10963;50.934;4.668;2024-01-07T05:17:43;4.00;99.90
21602;DHT22;10963;50.934;4.668;2024-01-07T05:20:09;3.90;99.90
21602;DHT22;10963;50.934;4.668;2024-01-07T05:22:35;4.00;99.90
21602;DHT22;10963;50.934;4.668;2024-01-07T05:25:00;4.10;99.90
21602;DHT22;10963;50.934;4.668;2024-01-07T05:27:29;4.30;99.90
21602;DHT22;10963;50.934;4.668;2024-01-07T05:29:54;4.20;99.90
21602;DHT22;10963;50.934;4.668;2024-01-07T05:32:20;4.00;99.90
21602;DHT22;10963;50.934;4.668;2024-01-07T05:34:49;4.10;99.90
21602;DHT22;10963;50.934;4.668;2024-01-07T05:37:17;4.10;99.90
21602;DHT22;10963;50.934;4.668;2024-01-07T05:39:43;4.10;99.90
21602;DHT22;10963;50.934;4.668;2024-01-07T05:42:09;4.00;99.90
21602;DHT22;10963;50.934;4.668;2024-01-07T05:44:36;4.00;99.90
21602;DHT22;10963;50.934;4.668;2024-01-07T05:47:02;3.90;99.90
21602;DHT22;10963;50.934;4.668;2024-01-07T05:49:33;3.70;99.90
21602;DHT22;10963;50.934;4.668;2024-01-07T05:51:58;3.70;99.90
21602;DHT22;10963;50.934;4.668;2024-01-07T05:54:24;3.90;99.90
21602;DHT22;10963;50.934;4.668;2024-01-07T05:56:51;3.90;99.90
21602;DHT22;10963;50.934;4.668;2024-01-07T05:59:20;3.80;99.90
21602;DHT22;10963;50.934;4.668;2024-01-07T06:01:45;3.70;99.90
21602;DHT22;10963;50.934;4.668;2024-01-07T06:04:13;3.70;99.90
21602;DHT22;10963;50.934;4.668;2024-01-07T06:06:39;3.60;99.90
21602;DHT22;10963;50.934;4.668;2024-01-07T06:09:05;3.40;99.90
21602;DHT22;10963;50.934;4.668;2024-01-07T06:11:31;3.40;99.90
21602;DHT22;10963;50.934;4.668;2024-01-07T06:13:56;3.40;99.90
21602;DHT22;10963;50.934;4.668;2024-01-07T06:16:22;3.50;99.90
21602;DHT22;10963;50.934;4.668;2024-01-07T06:18:48;3.40;99.90
21602;DHT22;10963;50.934;4.668;2024-01-07T06:21:14;3.40;99.90
21602;DHT22;10963;50.934;4.668;2024-01-07T06:23:45;3.40;99.90
21602;DHT22;10963;50.934;4.668;2024-01-07T06:26:10;3.30;99.90
21602;DHT22;10963;50.934;4.668;2024-01-07T06:28:38;3.40;99.90
21602;DHT22;10963;50.934;4.668;2024-01-07T06:31:06;3.40;99.90
21602;DHT22;10963;50.934;4.668;2024-01-07T06:33:32;3.40;99.90
21602;DHT22;10963;50.934;4.668;2024-01-07T06:35:58;3.30;99.90
21602;DHT22;10963;50.934;4.668;2024-01-07T06:38:24;3.20;99.90
21602;DHT22;10963;50.934;4.668;2024-01-07T06:40:49;3.20;99.90
21602;DHT22;10963;50.934;4.668;2024-01-07T06:43:18;3.40;99.90
21602;DHT22;10963;50.934;4.668;2024-01-07T06:45:44;3.30;99.90
21602;DHT22;10963;50.934;4.668;2024-01-07T06:48:09;3.30;99.90
21602;DHT22;10963;50.934;4.668;2024-01-07T06:50:35;3.50;99.90
21602;DHT22;10963;50.934;4.668;2024-01-07T06:53:05;3.50;99.90
21602;DHT22;10963;50.934;4.668;2024-01-07T06:55:31;3.60;99.90
21602;DHT22;10963;50.934;4.668;2024-01-07T06:57:57;3.60;99.90
21602;DHT22;10963;50.934;4.668;2024-01-07T07:00:22;3.70;99.90
21602;DHT22;10963;50.934;4.668;2024-01-07T07:02:48;3.60;99.90
21602;DHT22;10963;50.934;4.668;2024-01-07T07:05:14;3.50;99.90
21602;DHT22;10963;50.934;4.668;2024-01-07T07:07:43;3.40;99.90
21602;DHT22;10963;50.934;4.668;2024-01-07T07:10:13;3.50;99.90
21602;DHT22;10963;50.934;4.668;2024-01-07T07:12:39;3.60;99.90
21602;DHT22;10963;50.934;4.668;2024-01-07T07:15:05;3.50;99.90
21602;DHT22;10963;50.934;4.668;2024-01-07T07:17:33;3.60;99.90
21602;DHT22;10963;50.934;4.668;2024-01-07T07:19:59;3.70;99.90
21602;DHT22;10963;50.934;4.668;2024-01-07T07:22:24;3.70;99.90
21602;DHT22;10963;50.934;4.668;2024-01-07T07:24:50;3.50;99.90
21602;DHT22;10963;50.934;4.668;2024-01-07T07:27:16;3.50;99.90
21602;DHT22;10963;50.934;4.668;2024-01-07T07:29:42;3.50;99.90
21602;DHT22;10963;50.934;4.668;2024-01-07T07:32:07;3.50;99.90
21602;DHT22;10963;50.934;4.668;2024-01-07T07:34:33;3.50;99.90
21602;DHT22;10963;50.934;4.668;2024-01-07T07:36:59;3.60;99.90
21602;DHT22;10963;50.934;4.668;2024-01-07T07:39:24;3.60;99.90
21602;DHT22;10963;50.934;4.668;2024-01-07T07:41:50;3.70;99.90
21602;DHT22;10963;50.934;4.668;2024-01-07T07:44:18;3.50;99.90
21602;DHT22;10963;50.934;4.668;2024-01-07T07:46:44;3.40;99.90
21602;DHT22;10963;50.934;4.668;2024-01-07T07:49:10;3.30;99.90
21602;DHT22;10963;50.934;4.668;2024-01-07T07:51:36;3.20;99.90
21602;DHT22;10963;50.934;4.668;2024-01-07T07:54:02;3.20;99.90
21602;DHT22;10963;50.934;4.668;2024-01-07T07:56:29;3.20;99.90
21602;DHT22;10963;50.934;4.668;2024-01-07T07:58:54;3.10;99.90
21602;DHT22;10963;50.934;4.668;2024-01-07T08:01:26;3.10;99.90
21602;DHT22;10963;50.934;4.668;2024-01-07T08:03:54;3.20;99.90
21602;DHT22;10963;50.934;4.668;2024-01-07T08:06:23;3.20;99.90
21602;DHT22;10963;50.934;4.668;2024-01-07T08:08:50;3.20;99.90
21602;DHT22;10963;50.934;4.668;2024-01-07T08:11:19;3.30;99.90
21602;DHT22;10963;50.934;4.668;2024-01-07T08:13:46;3.50;99.90
21602;DHT22;10963;50.934;4.668;2024-01-07T08:16:13;3.60;99.90
21602;DHT22;10963;50.934;4.668;2024-01-07T08:18:39;3.60;99.90
21602;DHT22;10963;50.934;4.668;2024-01-07T08:21:11;3.70;99.90
21602;DHT22;10963;50.934;4.668;2024-01-07T08:23:37;3.80;99.90
21602;DHT22;10963;50.934;4.668;2024-01-07T08:26:07;3.50;99.90
21602;DHT22;10963;50.934;4.668;2024-01-07T08:28:33;3.30;99.90
21602;DHT22;10963;50.934;4.668;2024-01-07T08:31:01;3.20;99.90
21602;DHT22;10963;50.934;4.668;2024-01-07T08:33:29;3.10;99.90
21602;DHT22;10963;50.934;4.668;2024-01-07T08:35:57;3.10;99.90
21602;DHT22;10963;50.934;4.668;2024-01-07T08:38:22;3.30;99.90
21602;DHT22;10963;50.934;4.668;2024-01-07T08:40:48;3.20;99.90
21602;DHT22;10963;50.934;4.668;2024-01-07T08:43:14;3.20;99.90
21602;DHT22;10963;50.934;4.668;2024-01-07T08:45:39;3.30;99.90
21602;DHT22;10963;50.934;4.668;2024-01-07T08:48:08;3.20;99.90
21602;DHT22;10963;50.934;4.668;2024-01-07T08:50:33;3.00;99.90
21602;DHT22;10963;50.934;4.668;2024-01-07T08:52:59;3.10;99.90
21602;DHT22;10963;50.934;4.668;2024-01-07T08:55:27;3.00;99.90
21602;DHT22;10963;50.934;4.668;2024-01-07T08:57:55;2.90;99.90
21602;DHT22;10963;50.934;4.668;2024-01-07T09:00:23;2.90;99.90
21602;DHT22;10963;50.934;4.668;2024-01-07T09:02:52;2.90;99.90
21602;DHT22;10963;50.934;4.668;2024-01-07T09:05:18;2.90;99.90
21602;DHT22;10963;50.934;4.668;2024-01-07T09:07:44;2.90;99.90
21602;DHT22;10963;50.934;4.668;2024-01-07T09:10:10;3.10;99.90
21602;DHT22;10963;50.934;4.668;2024-01-07T09:12:37;3.00;99.90
21602;DHT22;10963;50.934;4.668;2024-01-07T09:15:05;3.00;99.90
21602;DHT22;10963;50.934;4.668;2024-01-07T09:17:36;2.90;99.90
21602;DHT22;10963;50.934;4.668;2024-01-07T09:20:07;2.80;99.90
21602;DHT22;10963;50.934;4.668;2024-01-07T09:22:36;2.90;99.90
21602;DHT22;10963;50.934;4.668;2024-01-07T09:25:03;3.00;99.90
21602;DHT22;10963;50.934;4.668;2024-01-07T09:27:29;3.00;99.90
21602;DHT22;10963;50.934;4.668;2024-01-07T09:29:57;3.00;99.90
21602;DHT22;10963;50.934;4.668;2024-01-07T09:32:23;3.00;99.90
21602;DHT22;10963;50.934;4.668;2024-01-07T09:34:49;3.00;99.90
21602;DHT22;10963;50.934;4.668;2024-01-07T09:37:15;2.90;99.90
21602;DHT22;10963;50.934;4.668;2024-01-07T09:39:44;2.90;99.90
21602;DHT22;10963;50.934;4.668;2024-01-07T09:42:16;2.90;99.90
21602;DHT22;10963;50.934;4.668;2024-01-07T09:44:42;3.00;99.90
21602;DHT22;10963;50.934;4.668;2024-01-07T09:47:13;2.90;99.90
21602;DHT22;10963;50.934;4.668;2024-01-07T09:49:43;2.90;99.90
21602;DHT22;10963;50.934;4.668;2024-01-07T09:52:12;2.80;99.90
21602;DHT22;10963;50.934;4.668;2024-01-07T09:54:38;2.90;99.90
21602;DHT22;10963;50.934;4.668;2024-01-07T09:57:08;3.00;99.90
21602;DHT22;10963;50.934;4.668;2024-01-07T09:59:36;3.10;99.90
21602;DHT22;10963;50.934;4.668;2024-01-07T10:02:03;3.20;99.90
21602;DHT22;10963;50.934;4.668;2024-01-07T10:04:32;3.10;99.90
21602;DHT22;10963;50.934;4.668;2024-01-07T10:06:57;3.20;99.90
21602;DHT22;10963;50.934;4.668;2024-01-07T10:09:28;3.10;99.90
21602;DHT22;10963;50.934;4.668;2024-01-07T10:11:56;3.10;99.90
21602;DHT22;10963;50.934;4.668;2024-01-07T10:14:25;3.00;99.90
21602;DHT22;10963;50.934;4.668;2024-01-07T10:16:52;3.00;99.90
21602;DHT22;10963;50.934;4.668;2024-01-07T10:19:25;3.10;99.90
21602;DHT22;10963;50.934;4.668;2024-01-07T10:22:00;3.10;99.90
21602;DHT22;10963;50.934;4.668;2024-01-07T10:24:35;3.00;99.90
21602;DHT22;10963;50.934;4.668;2024-01-07T10:27:04;3.00;99.90
21602;DHT22;10963;50.934;4.668;2024-01-07T10:29:31;3.10;99.90
21602;DHT22;10963;50.934;4.668;2024-01-07T10:32:01;3.10;99.90
21602;DHT22;10963;50.934;4.668;2024-01-07T10:34:34;3.20;99.90
21602;DHT22;10963;50.934;4.668;2024-01-07T10:37:02;3.10;99.90
21602;DHT22;10963;50.934;4.668;2024-01-07T10:39:28;3.10;99.90
21602;DHT22;10963;50.934;4.668;2024-01-07T10:42:00;3.10;99.90
21602;DHT22;10963;50.934;4.668;2024-01-07T10:44:29;3.00;99.90
21602;DHT22;10963;50.934;4.668;2024-01-07T10:46:58;2.90;99.90
21602;DHT22;10963;50.934;4.668;2024-01-07T10:49:28;2.90;99.90
21602;DHT22;10963;50.934;4.668;2024-01-07T10:54:30;2.80;99.90
21602;DHT22;10963;50.934;4.668;2024-01-07T10:57:21;2.90;99.90
21602;DHT22;10963;50.934;4.668;2024-01-07T10:59:50;2.90;99.90
21602;DHT22;10963;50.934;4.668;2024-01-07T11:02:17;2.90;99.90
21602;DHT22;10963;50.934;4.668;2024-01-07T11:07:35;2.90;99.90
21602;DHT22;10963;50.934;4.668;2024-01-07T11:12:43;3.10;99.90
21602;DHT22;10963;50.934;4.668;2024-01-07T11:15:09;3.10;99.90
21602;DHT22;10963;50.934;4.668;2024-01-07T11:20:07;3.10;99.90
21602;DHT22;10963;50.934;4.668;2024-01-07T11:22:36;2.90;99.90
21602;DHT22;10963;50.934;4.668;2024-01-07T11:25:19;2.90;99.90
21602;DHT22;10963;50.934;4.668;2024-01-07T11:27:50;2.90;99.90
21602;DHT22;10963;50.934;4.668;2024-01-07T11:30:20;2.90;99.90
21602;DHT22;10963;50.934;4.668;2024-01-07T11:32:46;2.80;99.90
21602;DHT22;10963;50.934;4.668;2024-01-07T11:35:13;2.70;99.90
21602;DHT22;10963;50.934;4.668;2024-01-07T11:37:42;2.70;99.90
21602;DHT22;10963;50.934;4.668;2024-01-07T11:40:08;2.80;99.90
21602;DHT22;10963;50.934;4.668;2024-01-07T11:42:36;2.70;99.90
21602;DHT22;10963;50.934;4.668;2024-01-07T11:45:02;2.70;99.90
21602;DHT22;10963;50.934;4.668;2024-01-07T11:47:31;2.80;99.90
21602;DHT22;10963;50.934;4.668;2024-01-07T11:50:04;2.90;99.90
21602;DHT22;10963;50.934;4.668;2024-01-07T11:52:33;3.00;99.90
21602;DHT22;10963;50.934;4.668;2024-01-07T11:55:00;3.00;99.90
21602;DHT22;10963;50.934;4.668;2024-01-07T11:57:26;3.00;99.90
21602;DHT22;10963;50.934;4.668;2024-01-07T11:59:54;2.90;99.90
21602;DHT22;10963;50.934;4.668;2024-01-07T12:02:24;2.80;99.90
21602;DHT22;10963;50.934;4.668;2024-01-07T12:04:55;2.70;99.90
21602;DHT22;10963;50.934;4.668;2024-01-07T12:07:23;2.60;99.90
21602;DHT22;10963;50.934;4.668;2024-01-07T12:09:58;2.50;99.90
21602;DHT22;10963;50.934;4.668;2024-01-07T12:12:26;2.60;99.90
21602;DHT22;10963;50.934;4.668;2024-01-07T12:14:53;2.50;99.90
21602;DHT22;10963;50.934;4.668;2024-01-07T12:17:18;2.50;99.90
21602;DHT22;10963;50.934;4.668;2024-01-07T12:19:47;2.70;99.90
21602;DHT22;10963;50.934;4.668;2024-01-07T12:22:13;2.70;99.90
21602;DHT22;10963;50.934;4.668;2024-01-07T12:24:39;2.80;99.90
21602;DHT22;10963;50.934;4.668;2024-01-07T12:27:05;2.90;99.90
21602;DHT22;10963;50.934;4.668;2024-01-07T12:29:36;2.90;99.90
21602;DHT22;10963;50.934;4.668;2024-01-07T12:32:01;3.00;99.90
21602;DHT22;10963;50.934;4.668;2024-01-07T12:34:28;3.00;99.90
21602;DHT22;10963;50.934;4.668;2024-01-07T12:36:54;2.90;99.90
21602;DHT22;10963;50.934;4.668;2024-01-07T12:39:20;2.90;99.90
21602;DHT22;10963;50.934;4.668;2024-01-07T12:41:46;2.90;99.90
21602;DHT22;10963;50.934;4.668;2024-01-07T12:44:14;3.00;99.90
21602;DHT22;10963;50.934;4.668;2024-01-07T12:46:42;2.90;99.90
21602;DHT22;10963;50.934;4.668;2024-01-07T12:49:08;3.00;99.90
21602;DHT22;10963;50.934;4.668;2024-01-07T12:51:34;2.90;99.90
21602;DHT22;10963;50.934;4.668;2024-01-07T12:54:00;2.90;99.90
21602;DHT22;10963;50.934;4.668;2024-01-07T12:56:29;2.90;99.90
21602;DHT22;10963;50.934;4.668;2024-01-07T12:58:54;2.90;99.90
21602;DHT22;10963;50.934;4.668;2024-01-07T13:01:20;2.90;99.90
21602;DHT22;10963;50.934;4.668;2024-01-07T13:03:46;2.80;99.90
21602;DHT22;10963;50.934;4.668;2024-01-07T13:06:11;2.70;99.90
21602;DHT22;10963;50.934;4.668;2024-01-07T13:08:37;2.70;99.90
21602;DHT22;10963;50.934;4.668;2024-01-07T13:11:03;2.70;99.90
21602;DHT22;10963;50.934;4.668;2024-01-07T13:13:31;2.50;99.90
21602;DHT22;10963;50.934;4.668;2024-01-07T13:16:00;2.60;99.90
21602;DHT22;10963;50.934;4.668;2024-01-07T13:18:27;2.70;99.90
21602;DHT22;10963;50.934;4.668;2024-01-07T13:20:57;2.70;99.90
21602;DHT22;10963;50.934;4.668;2024-01-07T13:23:23;2.80;99.90
21602;DHT22;10963;50.934;4.668;2024-01-07T13:25:49;2.70;99.90
21602;DHT22;10963;50.934;4.668;2024-01-07T13:28:19;2.70;99.90
21602;DHT22;10963;50.934;4.668;2024-01-07T13:30:47;2.60;99.90
21602;DHT22;10963;50.934;4.668;2024-01-07T13:33:13;2.50;99.90
21602;DHT22;10963;50.934;4.668;2024-01-07T13:35:39;2.60;99.90
21602;DHT22;10963;50.934;4.668;2024-01-07T13:38:09;2.60;99.90
21602;DHT22;10963;50.934;4.668;2024-01-07T13:40:36;2.50;99.90
21602;DHT22;10963;50.934;4.668;2024-01-07T13:43:03;2.50;99.90
21602;DHT22;10963;50.934;4.668;2024-01-07T13:45:31;2.40;99.90
21602;DHT22;10963;50.934;4.668;2024-01-07T13:48:02;2.50;99.90
21602;DHT22;10963;50.934;4.668;2024-01-07T13:50:31;2.60;99.90
21602;DHT22;10963;50.934;4.668;2024-01-07T13:52:59;2.60;99.90
21602;DHT22;10963;50.934;4.668;2024-01-07T13:55:24;2.60;99.90
21602;DHT22;10963;50.934;4.668;2024-01-07T13:57:50;2.70;99.90
21602;DHT22;10963;50.934;4.668;2024-01-07T14:00:18;2.60;99.90
21602;DHT22;10963;50.934;4.668;2024-01-07T14:02:47;2.60;99.90
21602;DHT22;10963;50.934;4.668;2024-01-07T14:05:12;2.60;99.90
21602;DHT22;10963;50.934;4.668;2024-01-07T14:07:38;2.60;99.90
21602;DHT22;10963;50.934;4.668;2024-01-07T14:10:05;2.50;99.90
21602;DHT22;10963;50.934;4.668;2024-01-07T14:12:34;2.40;99.90
21602;DHT22;10963;50.934;4.668;2024-01-07T14:14:59;2.30;99.90
21602;DHT22;10963;50.934;4.668;2024-01-07T14:17:25;2.30;99.90
21602;DHT22;10963;50.934;4.668;2024-01-07T14:19:51;2.40;99.90
21602;DHT22;10963;50.934;4.668;2024-01-07T14:22:20;2.40;99.90
21602;DHT22;10963;50.934;4.668;2024-01-07T14:24:47;2.50;99.90
21602;DHT22;10963;50.934;4.668;2024-01-07T14:27:15;2.60;99.90
21602;DHT22;10963;50.934;4.668;2024-01-07T14:29:42;2.60;99.90
21602;DHT22;10963;50.934;4.668;2024-01-07T14:32:08;2.60;99.90
21602;DHT22;10963;50.934;4.668;2024-01-07T14:34:39;2.60;99.90
21602;DHT22;10963;50.934;4.668;2024-01-07T14:37:11;2.70;99.90
21602;DHT22;10963;50.934;4.668;2024-01-07T14:39:37;2.60;99.90
21602;DHT22;10963;50.934;4.668;2024-01-07T14:42:03;2.50;99.90
21602;DHT22;10963;50.934;4.668;2024-01-07T14:44:29;2.50;99.90
21602;DHT22;10963;50.934;4.668;2024-01-07T14:46:57;2.40;99.90
21602;DHT22;10963;50.934;4.668;2024-01-07T14:49:24;2.50;99.90
21602;DHT22;10963;50.934;4.668;2024-01-07T14:51:50;2.50;99.90
21602;DHT22;10963;50.934;4.668;2024-01-07T14:54:18;2.60;99.90
21602;DHT22;10963;50.934;4.668;2024-01-07T14:56:44;2.60;99.90
21602;DHT22;10963;50.934;4.668;2024-01-07T14:59:09;2.60;99.90
21602;DHT22;10963;50.934;4.668;2024-01-07T15:01:40;2.60;99.90
21602;DHT22;10963;50.934;4.668;2024-01-07T15:04:10;2.60;99.90
21602;DHT22;10963;50.934;4.668;2024-01-07T15:06:40;2.50;99.90
21602;DHT22;10963;50.934;4.668;2024-01-07T15:09:07;2.50;99.90
21602;DHT22;10963;50.934;4.668;2024-01-07T15:11:35;2.40;99.90
21602;DHT22;10963;50.934;4.668;2024-01-07T15:14:01;2.30;99.90
21602;DHT22;10963;50.934;4.668;2024-01-07T15:16:33;2.30;99.90
21602;DHT22;10963;50.934;4.668;2024-01-07T15:18:59;2.30;99.90
21602;DHT22;10963;50.934;4.668;2024-01-07T15:21:25;2.30;99.90
21602;DHT22;10963;50.934;4.668;2024-01-07T15:23:51;2.20;99.90
21602;DHT22;10963;50.934;4.668;2024-01-07T15:26:16;2.10;99.90
21602;DHT22;10963;50.934;4.668;2024-01-07T15:28:45;2.10;99.90
21602;DHT22;10963;50.934;4.668;2024-01-07T15:31:10;2.10;99.90
21602;DHT22;10963;50.934;4.668;2024-01-07T15:33:36;2.20;99.90
21602;DHT22;10963;50.934;4.668;2024-01-07T15:36:05;2.20;99.90
21602;DHT22;10963;50.934;4.668;2024-01-07T15:38:31;2.30;99.90
21602;DHT22;10963;50.934;4.668;2024-01-07T15:40:57;2.20;99.90
21602;DHT22;10963;50.934;4.668;2024-01-07T15:43:23;2.10;99.90
21602;DHT22;10963;50.934;4.668;2024-01-07T15:45:48;2.10;99.90
21602;DHT22;10963;50.934;4.668;2024-01-07T15:48:14;2.00;99.90
21602;DHT22;10963;50.934;4.668;2024-01-07T15:50:40;2.00;99.90
21602;DHT22;10963;50.934;4.668;2024-01-07T15:53:06;1.90;99.90
21602;DHT22;10963;50.934;4.668;2024-01-07T15:55:32;1.90;99.90